sensor_id;sensor_type;location;lat;lon;timestamp;temperature;humidity
29479;DHT22;16437;41.836;23.480;2022-07-10T00:02:12;24.50;50.50
29479;DHT22;16437;41.836;23.480;2022-07-10T00:07:39;24.50;50.30
29479;DHT22;16437;41.836;23.480;2022-07-10T00:13:06;24.40;50.20
29479;DHT22;16437;41.836;23.480;2022-07-10T00:18:32;24.40;50.00
29479;DHT22;16437;41.836;23.480;2022-07-10T00:23:59;24.40;49.90
29479;DHT22;16437;41.836;23.480;2022-07-10T00:29:25;24.40;49.80
29479;DHT22;16437;41.836;23.480;2022-07-10T00:34:52;24.30;49.70
29479;DHT22;16437;41.836;23.480;2022-07-10T00:40:18;24.30;49.70
29479;DHT22;16437;41.836;23.480;2022-07-10T00:45:45;24.30;49.60
29479;DHT22;16437;41.836;23.480;2022-07-10T00:51:12;24.30;49.60
29479;DHT22;16437;41.836;23.480;2022-07-10T00:56:39;24.20;49.60
29479;DHT22;16437;41.836;23.480;2022-07-10T01:02:08;24.30;49.60
29479;DHT22;16437;41.836;23.480;2022-07-10T01:07:35;24.20;49.60
29479;DHT22;16437;41.836;23.480;2022-07-10T01:13:02;24.30;49.60
29479;DHT22;16437;41.836;23.480;2022-07-10T01:18:30;24.20;49.60
29479;DHT22;16437;41.836;23.480;2022-07-10T01:23:57;24.20;49.60
29479;DHT22;16437;41.836;23.480;2022-07-10T01:29:23;24.10;49.50
29479;DHT22;16437;41.836;23.480;2022-07-10T01:34:50;24.10;49.50
29479;DHT22;16437;41.836;23.480;2022-07-10T01:40:16;24.10;49.40
29479;DHT22;16437;41.836;23.480;2022-07-10T01:45:42;24.10;49.50
29479;DHT22;16437;41.836;23.480;2022-07-10T01:51:11;24.10;49.40
29479;DHT22;16437;41.836;23.480;2022-07-10T01:56:37;24.10;49.40
29479;DHT22;16437;41.836;23.480;2022-07-10T02:02:04;24.10;49.60
29479;DHT22;16437;41.836;23.480;2022-07-10T02:07:31;24.10;49.60
29479;DHT22;16437;41.836;23.480;2022-07-10T02:12:57;24.00;49.60
29479;DHT22;16437;41.836;23.480;2022-07-10T02:18:23;24.00;49.50
29479;DHT22;16437;41.836;23.480;2022-07-10T02:23:50;24.00;49.60
29479;DHT22;16437;41.836;23.480;2022-07-10T02:29:17;24.00;49.60
29479;DHT22;16437;41.836;23.480;2022-07-10T02:34:43;24.00;49.50
29479;DHT22;16437;41.836;23.480;2022-07-10T02:40:10;24.00;49.60
29479;DHT22;16437;41.836;23.480;2022-07-10T02:45:36;24.00;49.60
29479;DHT22;16437;41.836;23.480;2022-07-10T02:51:02;24.00;49.60
29479;DHT22;16437;41.836;23.480;2022-07-10T02:56:29;24.00;49.50
29479;DHT22;16437;41.836;23.480;2022-07-10T03:01:55;23.90;49.60
29479;DHT22;16437;41.836;23.480;2022-07-10T03:07:22;23.90;49.60
29479;DHT22;16437;41.836;23.480;2022-07-10T03:12:48;23.90;49.50
29479;DHT22;16437;41.836;23.480;2022-07-10T03:18:15;23.90;49.50
29479;DHT22;16437;41.836;23.480;2022-07-10T03:23:42;23.90;49.50
29479;DHT22;16437;41.836;23.480;2022-07-10T03:29:08;23.90;49.50
29479;DHT22;16437;41.836;23.480;2022-07-10T03:34:35;23.90;49.50
29479;DHT22;16437;41.836;23.480;2022-07-10T03:40:02;23.90;49.30
29479;DHT22;16437;41.836;23.480;2022-07-10T03:45:28;23.90;49.20
29479;DHT22;16437;41.836;23.480;2022-07-10T03:50:55;23.90;49.20
29479;DHT22;16437;41.836;23.480;2022-07-10T03:56:21;23.90;49.20
29479;DHT22;16437;41.836;23.480;2022-07-10T04:02:06;23.80;49.20
29479;DHT22;16437;41.836;23.480;2022-07-10T04:07:33;23.80;49.10
29479;DHT22;16437;41.836;23.480;2022-07-10T04:13:00;23.80;49.30
29479;DHT22;16437;41.836;23.480;2022-07-10T04:18:26;23.80;49.30
29479;DHT22;16437;41.836;23.480;2022-07-10T04:23:54;23.80;49.30
29479;DHT22;16437;41.836;23.480;2022-07-10T04:29:20;23.80;49.40
29479;DHT22;16437;41.836;23.480;2022-07-10T04:34:48;23.80;49.40
29479;DHT22;16437;41.836;23.480;2022-07-10T04:40:15;23.80;49.50
29479;DHT22;16437;41.836;23.480;2022-07-10T04:45:41;23.70;49.50
29479;DHT22;16437;41.836;23.480;2022-07-10T04:51:08;23.70;49.50
29479;DHT22;16437;41.836;23.480;2022-07-10T04:56:34;23.70;49.60
29479;DHT22;16437;41.836;23.480;2022-07-10T05:02:01;23.70;49.70
29479;DHT22;16437;41.836;23.480;2022-07-10T05:07:27;23.70;49.70
29479;DHT22;16437;41.836;23.480;2022-07-10T05:12:54;23.70;49.80
29479;DHT22;16437;41.836;23.480;2022-07-10T05:18:20;23.70;49.80
29479;DHT22;16437;41.836;23.480;2022-07-10T05:23:47;23.70;49.90
29479;DHT22;16437;41.836;23.480;2022-07-10T05:29:13;23.70;50.00
29479;DHT22;16437;41.836;23.480;2022-07-10T05:34:39;23.70;50.00
29479;DHT22;16437;41.836;23.480;2022-07-10T05:40:06;23.70;50.00
29479;DHT22;16437;41.836;23.480;2022-07-10T05:45:33;23.70;50.10
29479;DHT22;16437;41.836;23.480;2022-07-10T05:50:59;23.70;50.20
29479;DHT22;16437;41.836;23.480;2022-07-10T05:56:25;23.70;50.30
29479;DHT22;16437;41.836;23.480;2022-07-10T06:01:52;23.70;50.30
29479;DHT22;16437;41.836;23.480;2022-07-10T06:07:19;23.70;50.30
29479;DHT22;16437;41.836;23.480;2022-07-10T06:12:45;23.70;50.40
29479;DHT22;16437;41.836;23.480;2022-07-10T06:18:12;23.70;50.40
29479;DHT22;16437;41.836;23.480;2022-07-10T06:23:38;23.70;50.50
29479;DHT22;16437;41.836;23.480;2022-07-10T06:29:04;23.70;50.50
29479;DHT22;16437;41.836;23.480;2022-07-10T06:34:31;23.70;50.50
29479;DHT22;16437;41.836;23.480;2022-07-10T06:39:58;23.80;50.60
29479;DHT22;16437;41.836;23.480;2022-07-10T06:45:25;23.70;50.60
29479;DHT22;16437;41.836;23.480;2022-07-10T06:50:51;23.70;50.70
29479;DHT22;16437;41.836;23.480;2022-07-10T06:56:18;23.80;50.80
29479;DHT22;16437;41.836;23.480;2022-07-10T07:01:44;23.80;50.90
29479;DHT22;16437;41.836;23.480;2022-07-10T07:07:10;23.80;51.00
29479;DHT22;16437;41.836;23.480;2022-07-10T07:12:38;23.80;51.00
29479;DHT22;16437;41.836;23.480;2022-07-10T07:18:05;23.80;51.10
29479;DHT22;16437;41.836;23.480;2022-07-10T07:23:35;23.80;51.10
29479;DHT22;16437;41.836;23.480;2022-07-10T07:29:02;23.80;51.20
29479;DHT22;16437;41.836;23.480;2022-07-10T07:34:28;23.80;51.10
29479;DHT22;16437;41.836;23.480;2022-07-10T07:39:56;23.80;51.20
29479;DHT22;16437;41.836;23.480;2022-07-10T07:45:23;23.90;51.20
29479;DHT22;16437;41.836;23.480;2022-07-10T07:50:50;23.80;51.20
29479;DHT22;16437;41.836;23.480;2022-07-10T07:56:17;23.80;51.20
29479;DHT22;16437;41.836;23.480;2022-07-10T08:01:43;23.80;51.20
29479;DHT22;16437;41.836;23.480;2022-07-10T08:07:10;23.80;51.20
29479;DHT22;16437;41.836;23.480;2022-07-10T08:12:37;23.80;51.20
29479;DHT22;16437;41.836;23.480;2022-07-10T08:18:04;23.70;51.20
29479;DHT22;16437;41.836;23.480;2022-07-10T08:23:30;23.70;51.20
29479;DHT22;16437;41.836;23.480;2022-07-10T08:28:56;23.70;51.20
29479;DHT22;16437;41.836;23.480;2022-07-10T08:34:23;23.70;51.30
29479;DHT22;16437;41.836;23.480;2022-07-10T08:39:50;23.60;51.40
29479;DHT22;16437;41.836;23.480;2022-07-10T08:45:16;23.60;51.40
29479;DHT22;16437;41.836;23.480;2022-07-10T08:50:45;23.60;51.60
29479;DHT22;16437;41.836;23.480;2022-07-10T08:56:12;23.60;51.80
29479;DHT22;16437;41.836;23.480;2022-07-10T09:01:39;23.60;52.00
29479;DHT22;16437;41.836;23.480;2022-07-10T09:07:06;23.60;52.20
29479;DHT22;16437;41.836;23.480;2022-07-10T09:18:19;23.50;52.50
29479;DHT22;16437;41.836;23.480;2022-07-10T09:23:46;23.50;52.70
29479;DHT22;16437;41.836;23.480;2022-07-10T09:29:13;23.50;52.80
29479;DHT22;16437;41.836;23.480;2022-07-10T09:34:47;23.50;53.00
29479;DHT22;16437;41.836;23.480;2022-07-10T09:40:13;23.50;53.10
29479;DHT22;16437;41.836;23.480;2022-07-10T09:45:40;23.50;53.20
29479;DHT22;16437;41.836;23.480;2022-07-10T09:51:08;23.50;53.30
29479;DHT22;16437;41.836;23.480;2022-07-10T09:56:49;23.50;53.40
29479;DHT22;16437;41.836;23.480;2022-07-10T10:02:20;23.50;53.50
29479;DHT22;16437;41.836;23.480;2022-07-10T10:07:47;23.60;53.50
29479;DHT22;16437;41.836;23.480;2022-07-10T10:13:22;23.60;53.50
29479;DHT22;16437;41.836;23.480;2022-07-10T10:18:50;23.60;53.60
29479;DHT22;16437;41.836;23.480;2022-07-10T10:24:36;23.60;53.60
29479;DHT22;16437;41.836;23.480;2022-07-10T10:30:07;23.60;53.60
29479;DHT22;16437;41.836;23.480;2022-07-10T10:35:44;23.60;53.70
29479;DHT22;16437;41.836;23.480;2022-07-10T10:41:25;23.60;53.70
29479;DHT22;16437;41.836;23.480;2022-07-10T10:52:28;23.70;53.90
29479;DHT22;16437;41.836;23.480;2022-07-10T10:58:11;23.60;53.90
29479;DHT22;16437;41.836;23.480;2022-07-10T11:03:24;23.60;54.00
29479;DHT22;16437;41.836;23.480;2022-07-10T11:08:50;23.70;54.00
29479;DHT22;16437;41.836;23.480;2022-07-10T11:14:17;23.70;54.00
29479;DHT22;16437;41.836;23.480;2022-07-10T11:19:45;23.70;53.90
29479;DHT22;16437;41.836;23.480;2022-07-10T11:25:32;23.70;54.00
29479;DHT22;16437;41.836;23.480;2022-07-10T11:30:57;23.80;54.10
29479;DHT22;16437;41.836;23.480;2022-07-10T11:36:26;23.80;54.10
29479;DHT22;16437;41.836;23.480;2022-07-10T11:41:54;23.90;54.20
29479;DHT22;16437;41.836;23.480;2022-07-10T11:47:21;23.90;54.30
29479;DHT22;16437;41.836;23.480;2022-07-10T11:52:47;23.90;54.50
29479;DHT22;16437;41.836;23.480;2022-07-10T11:58:19;23.90;54.60
29479;DHT22;16437;41.836;23.480;2022-07-10T12:04:00;23.90;54.70
29479;DHT22;16437;41.836;23.480;2022-07-10T12:09:27;23.90;54.70
29479;DHT22;16437;41.836;23.480;2022-07-10T12:14:53;24.00;54.80
29479;DHT22;16437;41.836;23.480;2022-07-10T12:20:19;24.00;54.80
29479;DHT22;16437;41.836;23.480;2022-07-10T12:25:47;24.10;54.90
29479;DHT22;16437;41.836;23.480;2022-07-10T12:31:24;24.10;54.80
29479;DHT22;16437;41.836;23.480;2022-07-10T12:36:53;24.10;54.80
29479;DHT22;16437;41.836;23.480;2022-07-10T12:42:27;24.10;54.90
29479;DHT22;16437;41.836;23.480;2022-07-10T12:47:54;24.20;54.90
29479;DHT22;16437;41.836;23.480;2022-07-10T12:53:20;24.20;54.80
29479;DHT22;16437;41.836;23.480;2022-07-10T12:58:46;24.20;54.70
29479;DHT22;16437;41.836;23.480;2022-07-10T13:04:13;24.30;54.60
29479;DHT22;16437;41.836;23.480;2022-07-10T13:09:40;24.30;54.60
29479;DHT22;16437;41.836;23.480;2022-07-10T13:15:07;24.40;54.40
29479;DHT22;16437;41.836;23.480;2022-07-10T13:20:34;24.40;54.20
29479;DHT22;16437;41.836;23.480;2022-07-10T13:26:01;24.50;54.10
29479;DHT22;16437;41.836;23.480;2022-07-10T13:31:28;24.50;54.00
29479;DHT22;16437;41.836;23.480;2022-07-10T13:36:55;24.50;53.80
29479;DHT22;16437;41.836;23.480;2022-07-10T13:42:24;24.60;53.60
29479;DHT22;16437;41.836;23.480;2022-07-10T13:47:51;24.60;53.40
29479;DHT22;16437;41.836;23.480;2022-07-10T13:53:19;24.70;53.30
29479;DHT22;16437;41.836;23.480;2022-07-10T13:58:46;24.70;53.10
29479;DHT22;16437;41.836;23.480;2022-07-10T14:04:13;24.80;53.00
29479;DHT22;16437;41.836;23.480;2022-07-10T14:09:39;24.80;52.90
29479;DHT22;16437;41.836;23.480;2022-07-10T14:15:06;24.80;52.80
29479;DHT22;16437;41.836;23.480;2022-07-10T14:20:33;24.90;52.80
29479;DHT22;16437;41.836;23.480;2022-07-10T14:26:01;24.90;52.80
29479;DHT22;16437;41.836;23.480;2022-07-10T14:31:29;24.90;52.80
29479;DHT22;16437;41.836;23.480;2022-07-10T14:36:56;24.90;52.90
29479;DHT22;16437;41.836;23.480;2022-07-10T14:42:23;24.90;52.80
29479;DHT22;16437;41.836;23.480;2022-07-10T14:47:50;25.00;52.80
29479;DHT22;16437;41.836;23.480;2022-07-10T14:53:17;24.90;52.90
29479;DHT22;16437;41.836;23.480;2022-07-10T14:58:44;25.00;52.90
29479;DHT22;16437;41.836;23.480;2022-07-10T15:04:10;25.00;53.00
29479;DHT22;16437;41.836;23.480;2022-07-10T15:09:36;25.00;53.10
29479;DHT22;16437;41.836;23.480;2022-07-10T15:15:04;25.00;53.10
29479;DHT22;16437;41.836;23.480;2022-07-10T15:20:32;25.00;53.20
29479;DHT22;16437;41.836;23.480;2022-07-10T15:25:59;25.00;53.20
29479;DHT22;16437;41.836;23.480;2022-07-10T15:31:26;25.00;53.30
29479;DHT22;16437;41.836;23.480;2022-07-10T15:36:52;25.00;53.20
29479;DHT22;16437;41.836;23.480;2022-07-10T15:42:19;24.90;53.10
29479;DHT22;16437;41.836;23.480;2022-07-10T15:47:46;24.90;52.90
29479;DHT22;16437;41.836;23.480;2022-07-10T15:53:12;25.00;52.60
29479;DHT22;16437;41.836;23.480;2022-07-10T15:58:39;25.00;52.40
29479;DHT22;16437;41.836;23.480;2022-07-10T16:04:07;24.90;52.10
29479;DHT22;16437;41.836;23.480;2022-07-10T16:09:34;24.90;51.90
29479;DHT22;16437;41.836;23.480;2022-07-10T16:15:01;24.90;51.40
29479;DHT22;16437;41.836;23.480;2022-07-10T16:20:28;24.90;51.10
29479;DHT22;16437;41.836;23.480;2022-07-10T16:25:54;24.90;50.70
29479;DHT22;16437;41.836;23.480;2022-07-10T16:31:25;24.80;50.20
29479;DHT22;16437;41.836;23.480;2022-07-10T16:36:51;24.80;49.80
29479;DHT22;16437;41.836;23.480;2022-07-10T16:42:20;24.80;49.40
29479;DHT22;16437;41.836;23.480;2022-07-10T16:47:46;24.70;49.10
29479;DHT22;16437;41.836;23.480;2022-07-10T16:53:12;24.70;48.90
29479;DHT22;16437;41.836;23.480;2022-07-10T16:58:38;24.60;48.60
29479;DHT22;16437;41.836;23.480;2022-07-10T17:04:05;24.60;48.30
29479;DHT22;16437;41.836;23.480;2022-07-10T17:09:32;24.60;48.00
29479;DHT22;16437;41.836;23.480;2022-07-10T17:14:59;24.50;47.70
29479;DHT22;16437;41.836;23.480;2022-07-10T17:20:26;24.50;47.40
29479;DHT22;16437;41.836;23.480;2022-07-10T17:25:53;24.40;47.20
29479;DHT22;16437;41.836;23.480;2022-07-10T17:31:20;24.40;47.00
29479;DHT22;16437;41.836;23.480;2022-07-10T17:36:47;24.30;46.80
29479;DHT22;16437;41.836;23.480;2022-07-10T17:42:13;24.30;46.60
29479;DHT22;16437;41.836;23.480;2022-07-10T17:47:39;24.30;46.40
29479;DHT22;16437;41.836;23.480;2022-07-10T17:53:06;24.30;46.30
29479;DHT22;16437;41.836;23.480;2022-07-10T17:58:33;24.20;46.10
29479;DHT22;16437;41.836;23.480;2022-07-10T18:03:59;24.20;46.00
29479;DHT22;16437;41.836;23.480;2022-07-10T18:09:25;24.20;45.90
29479;DHT22;16437;41.836;23.480;2022-07-10T18:14:52;24.20;45.80
29479;DHT22;16437;41.836;23.480;2022-07-10T18:20:18;24.20;45.60
29479;DHT22;16437;41.836;23.480;2022-07-10T18:25:45;24.20;45.60
29479;DHT22;16437;41.836;23.480;2022-07-10T18:31:12;24.20;45.50
29479;DHT22;16437;41.836;23.480;2022-07-10T18:36:39;24.20;45.50
29479;DHT22;16437;41.836;23.480;2022-07-10T18:42:05;24.20;45.60
29479;DHT22;16437;41.836;23.480;2022-07-10T18:47:32;24.10;45.60
29479;DHT22;16437;41.836;23.480;2022-07-10T18:52:58;24.20;45.60
29479;DHT22;16437;41.836;23.480;2022-07-10T18:58:24;24.20;45.60
29479;DHT22;16437;41.836;23.480;2022-07-10T19:03:51;24.20;45.70
29479;DHT22;16437;41.836;23.480;2022-07-10T19:09:19;24.20;45.80
29479;DHT22;16437;41.836;23.480;2022-07-10T19:14:45;24.20;46.00
29479;DHT22;16437;41.836;23.480;2022-07-10T19:20:13;24.20;46.10
29479;DHT22;16437;41.836;23.480;2022-07-10T19:25:41;24.20;46.10
29479;DHT22;16437;41.836;23.480;2022-07-10T19:31:08;24.30;46.20
29479;DHT22;16437;41.836;23.480;2022-07-10T19:36:35;24.20;46.20
29479;DHT22;16437;41.836;23.480;2022-07-10T19:42:05;24.20;46.10
29479;DHT22;16437;41.836;23.480;2022-07-10T19:47:32;24.20;46.00
29479;DHT22;16437;41.836;23.480;2022-07-10T19:52:59;24.20;46.00
29479;DHT22;16437;41.836;23.480;2022-07-10T19:58:26;24.20;46.00
29479;DHT22;16437;41.836;23.480;2022-07-10T20:03:52;24.20;46.00
29479;DHT22;16437;41.836;23.480;2022-07-10T20:09:19;24.20;46.00
29479;DHT22;16437;41.836;23.480;2022-07-10T20:14:45;24.20;46.00
29479;DHT22;16437;41.836;23.480;2022-07-10T20:20:12;24.20;46.10
29479;DHT22;16437;41.836;23.480;2022-07-10T20:25:39;24.20;46.00
29479;DHT22;16437;41.836;23.480;2022-07-10T20:31:06;24.10;46.00
29479;DHT22;16437;41.836;23.480;2022-07-10T20:36:32;24.10;45.90
29479;DHT22;16437;41.836;23.480;2022-07-10T20:42:17;24.10;45.90
29479;DHT22;16437;41.836;23.480;2022-07-10T20:47:43;24.10;46.00
29479;DHT22;16437;41.836;23.480;2022-07-10T20:53:10;24.10;46.10
29479;DHT22;16437;41.836;23.480;2022-07-10T20:58:37;24.10;46.10
29479;DHT22;16437;41.836;23.480;2022-07-10T21:04:04;24.10;46.20
29479;DHT22;16437;41.836;23.480;2022-07-10T21:09:30;24.10;46.30
29479;DHT22;16437;41.836;23.480;2022-07-10T21:14:56;24.10;46.30
29479;DHT22;16437;41.836;23.480;2022-07-10T21:20:23;24.10;46.30
29479;DHT22;16437;41.836;23.480;2022-07-10T21:25:50;24.10;46.20
29479;DHT22;16437;41.836;23.480;2022-07-10T21:31:16;24.10;46.20
29479;DHT22;16437;41.836;23.480;2022-07-10T21:36:43;24.10;46.30
29479;DHT22;16437;41.836;23.480;2022-07-10T21:42:09;24.10;46.40
29479;DHT22;16437;41.836;23.480;2022-07-10T21:47:36;24.10;46.50
29479;DHT22;16437;41.836;23.480;2022-07-10T21:53:03;24.00;46.40
29479;DHT22;16437;41.836;23.480;2022-07-10T21:58:29;24.00;46.50
29479;DHT22;16437;41.836;23.480;2022-07-10T22:03:56;24.00;46.50
29479;DHT22;16437;41.836;23.480;2022-07-10T22:09:23;24.00;46.40
29479;DHT22;16437;41.836;23.480;2022-07-10T22:14:50;24.00;46.40
29479;DHT22;16437;41.836;23.480;2022-07-10T22:20:16;24.00;46.40
29479;DHT22;16437;41.836;23.480;2022-07-10T22:25:43;24.00;46.50
29479;DHT22;16437;41.836;23.480;2022-07-10T22:31:09;24.00;46.60
29479;DHT22;16437;41.836;23.480;2022-07-10T22:36:46;24.00;46.60
29479;DHT22;16437;41.836;23.480;2022-07-10T22:42:13;24.00;46.60
29479;DHT22;16437;41.836;23.480;2022-07-10T22:47:39;24.00;46.60
29479;DHT22;16437;41.836;23.480;2022-07-10T22:53:07;24.00;46.60
29479;DHT22;16437;41.836;23.480;2022-07-10T22:58:33;24.00;46.60
29479;DHT22;16437;41.836;23.480;2022-07-10T23:04:00;24.00;46.60
29479;DHT22;16437;41.836;23.480;2022-07-10T23:09:26;23.90;46.60
29479;DHT22;16437;41.836;23.480;2022-07-10T23:14:52;23.90;46.60
29479;DHT22;16437;41.836;23.480;2022-07-10T23:20:19;23.90;46.50
29479;DHT22;16437;41.836;23.480;2022-07-10T23:25:46;23.90;46.50
29479;DHT22;16437;41.836;23.480;2022-07-10T23:31:13;23.90;46.50
29479;DHT22;16437;41.836;23.480;2022-07-10T23:36:39;23.90;46.40
29479;DHT22;16437;41.836;23.480;2022-07-10T23:42:06;23.90;46.40
29479;DHT22;16437;41.836;23.480;2022-07-10T23:47:33;23.80;46.40
29479;DHT22;16437;41.836;23.480;2022-07-10T23:52:59;23.90;46.40
29479;DHT22;16437;41.836;23.480;2022-07-10T23:58:25;23.90;46.40
